• pl
  • eng

Awiacja
NEWS
last updated: 12.09.2019 14:49<\/div>
Dear users,
We would like to inform you that from September 2nd a test form of the GAFOR forecast is available on our webpage. Please send your comments and suggestions to gafor@imgw.pl that will contribute to product development.
TAF FC 21:30 14.11.2019
  • WIND
  • SIGNIFICANT EURO
  • SIGNIFICANT
  • SIGMET
  • AIRMET
  • TAF FC
  • TAF FT
  • METAR GG30
  • METAR GG00


TAF EPLB 142030Z 1421/1506 03005KT 4000 BR OVC006
TEMPO 1421/1424 1200 -DZ BR OVC002
BECMG 1500/1502 10010KT 6000
TEMPO 1502/1506 2000 -RA BR OVC003=

TAF AMD EPSY 142200Z 1421/1506 CNL=

TAF AMD EPZG 142131Z 1421/1506 CNL=
Awiacja.imgw.pl jest pogodowym serwisem informacyjnym
Instytutu Meteorologii i Gospodarki Wodnej Państwowego Instytutu Badawczego.
Copyright IMGW PIB 2009-2019© Wszelkie prawa zastrzeżone.